sensor_id;sensor_type;location;lat;lon;timestamp;pressure;altitude;pressure_sealevel;temperature;humidity
71384;BME280;67558;52.166;5.004;2023-03-20T00:00:27;102032.03;;;11.19;66.08
71384;BME280;67558;52.166;5.004;2023-03-20T00:02:53;102042.75;;;11.19;66.09
71384;BME280;67558;52.166;5.004;2023-03-20T00:05:21;102030.19;;;11.20;65.79
71384;BME280;67558;52.166;5.004;2023-03-20T00:07:48;102024.25;;;11.18;65.69
71384;BME280;67558;52.166;5.004;2023-03-20T00:10:16;102030.31;;;11.13;65.80
71384;BME280;67558;52.166;5.004;2023-03-20T00:12:42;102022.28;;;11.13;65.64
71384;BME280;67558;52.166;5.004;2023-03-20T00:15:29;102015.31;;;11.12;65.28
71384;BME280;67558;52.166;5.004;2023-03-20T00:17:56;101996.56;;;11.12;65.54
71384;BME280;67558;52.166;5.004;2023-03-20T00:20:22;101995.66;;;11.06;65.35
71384;BME280;67558;52.166;5.004;2023-03-20T00:22:48;101995.16;;;11.10;65.29
71384;BME280;67558;52.166;5.004;2023-03-20T00:25:16;102008.81;;;11.08;65.36
71384;BME280;67558;52.166;5.004;2023-03-20T00:27:42;102006.13;;;11.08;65.17
71384;BME280;67558;52.166;5.004;2023-03-20T00:30:23;102012.75;;;11.05;64.83
71384;BME280;67558;52.166;5.004;2023-03-20T00:32:50;102013.91;;;11.10;64.93
71384;BME280;67558;52.166;5.004;2023-03-20T00:35:28;102026.25;;;11.11;64.39
71384;BME280;67558;52.166;5.004;2023-03-20T00:37:57;102040.47;;;11.11;64.39
71384;BME280;67558;52.166;5.004;2023-03-20T00:40:28;102024.53;;;11.04;64.18
71384;BME280;67558;52.166;5.004;2023-03-20T00:42:59;102032.22;;;11.01;64.30
71384;BME280;67558;52.166;5.004;2023-03-20T00:45:27;102052.59;;;11.02;64.12
71384;BME280;67558;52.166;5.004;2023-03-20T00:47:54;102042.94;;;11.01;64.59
71384;BME280;67558;52.166;5.004;2023-03-20T00:50:23;102062.50;;;11.01;64.42
71384;BME280;67558;52.166;5.004;2023-03-20T00:52:50;102067.75;;;10.96;64.64
71384;BME280;67558;52.166;5.004;2023-03-20T00:55:16;102069.03;;;10.94;64.74
71384;BME280;67558;52.166;5.004;2023-03-20T00:57:46;102061.00;;;10.94;64.76
71384;BME280;67558;52.166;5.004;2023-03-20T01:00:23;102045.44;;;10.91;65.10
71384;BME280;67558;52.166;5.004;2023-03-20T01:02:51;102053.09;;;10.87;64.96
71384;BME280;67558;52.166;5.004;2023-03-20T01:05:17;102041.25;;;10.83;65.08
71384;BME280;67558;52.166;5.004;2023-03-20T01:07:43;102045.31;;;10.85;64.98
71384;BME280;67558;52.166;5.004;2023-03-20T01:10:10;102056.00;;;10.85;64.86
71384;BME280;67558;52.166;5.004;2023-03-20T01:12:38;102052.53;;;10.85;64.96
71384;BME280;67558;52.166;5.004;2023-03-20T01:15:15;102045.53;;;10.84;65.11
71384;BME280;67558;52.166;5.004;2023-03-20T01:17:40;102056.25;;;10.84;64.98
71384;BME280;67558;52.166;5.004;2023-03-20T01:20:13;102056.16;;;10.79;65.13
71384;BME280;67558;52.166;5.004;2023-03-20T01:22:40;102057.66;;;10.75;65.11
71384;BME280;67558;52.166;5.004;2023-03-20T01:25:06;102057.34;;;10.71;65.17
71384;BME280;67558;52.166;5.004;2023-03-20T01:27:31;102060.56;;;10.73;65.13
71384;BME280;67558;52.166;5.004;2023-03-20T01:29:56;102057.56;;;10.70;65.06
71384;BME280;67558;52.166;5.004;2023-03-20T01:32:22;102048.47;;;10.71;64.77
71384;BME280;67558;52.166;5.004;2023-03-20T01:34:47;102040.94;;;10.68;64.84
71384;BME280;67558;52.166;5.004;2023-03-20T01:37:16;102041.03;;;10.73;64.68
71384;BME280;67558;52.166;5.004;2023-03-20T01:39:42;102039.41;;;10.72;64.83
71384;BME280;67558;52.166;5.004;2023-03-20T01:42:13;102036.59;;;10.66;64.78
71384;BME280;67558;52.166;5.004;2023-03-20T01:44:39;102044.31;;;10.63;64.85
71384;BME280;67558;52.166;5.004;2023-03-20T01:47:14;102047.00;;;10.51;64.93
71384;BME280;67558;52.166;5.004;2023-03-20T01:52:43;102076.69;;;10.50;64.82
71384;BME280;67558;52.166;5.004;2023-03-20T01:55:09;102068.16;;;10.41;64.90
71384;BME280;67558;52.166;5.004;2023-03-20T01:57:34;102066.53;;;10.40;64.99
71384;BME280;67558;52.166;5.004;2023-03-20T02:00:06;102057.84;;;10.33;65.29
71384;BME280;67558;52.166;5.004;2023-03-20T02:02:35;102070.72;;;10.36;65.15
71384;BME280;67558;52.166;5.004;2023-03-20T02:05:04;102076.88;;;10.36;65.24
71384;BME280;67558;52.166;5.004;2023-03-20T02:07:32;102062.13;;;10.34;65.40
71384;BME280;67558;52.166;5.004;2023-03-20T02:09:59;102050.44;;;10.28;65.35
71384;BME280;67558;52.166;5.004;2023-03-20T02:12:25;102056.41;;;10.30;65.30
71384;BME280;67558;52.166;5.004;2023-03-20T02:14:51;102037.06;;;10.28;65.34
71384;BME280;67558;52.166;5.004;2023-03-20T02:17:17;102038.75;;;10.29;65.26
71384;BME280;67558;52.166;5.004;2023-03-20T02:19:54;102032.22;;;10.25;65.25
71384;BME280;67558;52.166;5.004;2023-03-20T02:44:45;101997.69;;;10.12;64.95
71384;BME280;67558;52.166;5.004;2023-03-20T02:47:46;101995.25;;;10.10;64.96
71384;BME280;67558;52.166;5.004;2023-03-20T02:50:17;101986.88;;;10.07;64.95
71384;BME280;67558;52.166;5.004;2023-03-20T02:52:57;101972.94;;;10.04;65.03
71384;BME280;67558;52.166;5.004;2023-03-20T02:55:32;101949.81;;;9.98;65.10
71384;BME280;67558;52.166;5.004;2023-03-20T02:58:13;101946.31;;;9.98;65.13
71384;BME280;67558;52.166;5.004;2023-03-20T03:03:24;101984.19;;;9.95;65.06
71384;BME280;67558;52.166;5.004;2023-03-20T03:06:00;101977.00;;;9.95;65.06
71384;BME280;67558;52.166;5.004;2023-03-20T03:08:30;101967.91;;;9.84;65.04
71384;BME280;67558;52.166;5.004;2023-03-20T03:11:02;101981.88;;;9.87;65.30
71384;BME280;67558;52.166;5.004;2023-03-20T03:13:29;101996.28;;;9.86;65.51
71384;BME280;67558;52.166;5.004;2023-03-20T03:15:59;101979.88;;;9.82;65.32
71384;BME280;67558;52.166;5.004;2023-03-20T03:18:28;101986.63;;;9.84;65.14
71384;BME280;67558;52.166;5.004;2023-03-20T03:20:58;101992.22;;;9.83;65.09
71384;BME280;67558;52.166;5.004;2023-03-20T03:23:29;101978.28;;;9.81;65.26
71384;BME280;67558;52.166;5.004;2023-03-20T03:25:57;101972.22;;;9.74;65.26
71384;BME280;67558;52.166;5.004;2023-03-20T03:28:38;101989.63;;;9.76;65.38
71384;BME280;67558;52.166;5.004;2023-03-20T03:31:11;101979.78;;;9.77;65.30
71384;BME280;67558;52.166;5.004;2023-03-20T03:33:39;101975.47;;;9.76;65.29
71384;BME280;67558;52.166;5.004;2023-03-20T03:38:45;101961.09;;;9.77;65.39
71384;BME280;67558;52.166;5.004;2023-03-20T03:41:40;101967.81;;;9.79;65.43
71384;BME280;67558;52.166;5.004;2023-03-20T03:49:02;101940.63;;;9.71;65.44
71384;BME280;67558;52.166;5.004;2023-03-20T03:51:31;101936.09;;;9.71;65.39
71384;BME280;67558;52.166;5.004;2023-03-20T03:54:03;101927.13;;;9.66;65.31
71384;BME280;67558;52.166;5.004;2023-03-20T03:56:33;101935.59;;;9.74;65.56
71384;BME280;67558;52.166;5.004;2023-03-20T03:59:05;101927.03;;;9.72;65.62
71384;BME280;67558;52.166;5.004;2023-03-20T04:01:33;101937.72;;;9.72;65.54
71384;BME280;67558;52.166;5.004;2023-03-20T04:04:03;101947.13;;;9.75;65.57
71384;BME280;67558;52.166;5.004;2023-03-20T04:06:31;101941.22;;;9.73;65.53
71384;BME280;67558;52.166;5.004;2023-03-20T04:08:56;101934.00;;;9.73;65.47
71384;BME280;67558;52.166;5.004;2023-03-20T04:11:23;101926.69;;;9.69;65.44
71384;BME280;67558;52.166;5.004;2023-03-20T04:13:51;101919.81;;;9.61;65.59
71384;BME280;67558;52.166;5.004;2023-03-20T04:16:20;101933.31;;;9.66;65.41
71384;BME280;67558;52.166;5.004;2023-03-20T04:18:46;101927.38;;;9.64;65.31
71384;BME280;67558;52.166;5.004;2023-03-20T04:21:12;101931.56;;;9.60;65.42
71384;BME280;67558;52.166;5.004;2023-03-20T04:23:38;101920.41;;;9.51;65.75
71384;BME280;67558;52.166;5.004;2023-03-20T04:26:04;101934.94;;;9.55;65.78
71384;BME280;67558;52.166;5.004;2023-03-20T04:28:30;101943.28;;;9.59;65.59
71384;BME280;67558;52.166;5.004;2023-03-20T04:30:57;101948.63;;;9.59;65.68
71384;BME280;67558;52.166;5.004;2023-03-20T04:33:24;101934.56;;;9.52;65.68
71384;BME280;67558;52.166;5.004;2023-03-20T04:35:50;101943.28;;;9.59;65.58
71384;BME280;67558;52.166;5.004;2023-03-20T04:38:16;101942.34;;;9.53;65.63
71384;BME280;67558;52.166;5.004;2023-03-20T04:40:45;101927.94;;;9.54;65.65
71384;BME280;67558;52.166;5.004;2023-03-20T04:43:11;101935.16;;;9.54;65.55
71384;BME280;67558;52.166;5.004;2023-03-20T04:45:37;101930.59;;;9.54;65.70
71384;BME280;67558;52.166;5.004;2023-03-20T04:48:02;101928.16;;;9.53;65.86
71384;BME280;67558;52.166;5.004;2023-03-20T04:50:27;101930.59;;;9.54;65.96
71384;BME280;67558;52.166;5.004;2023-03-20T04:52:53;101929.59;;;9.55;65.66
71384;BME280;67558;52.166;5.004;2023-03-20T04:55:18;101920.16;;;9.53;65.64
71384;BME280;67558;52.166;5.004;2023-03-20T04:57:43;101918.63;;;9.57;65.63
71384;BME280;67558;52.166;5.004;2023-03-20T05:00:09;101915.97;;;9.57;65.59
71384;BME280;67558;52.166;5.004;2023-03-20T05:02:35;101929.59;;;9.55;65.70
71384;BME280;67558;52.166;5.004;2023-03-20T05:05:00;101923.75;;;9.58;65.68
71384;BME280;67558;52.166;5.004;2023-03-20T05:07:26;101921.31;;;9.57;65.71
71384;BME280;67558;52.166;5.004;2023-03-20T05:09:51;101918.78;;;9.62;65.47
71384;BME280;67558;52.166;5.004;2023-03-20T05:12:16;101923.88;;;9.63;65.49
71384;BME280;67558;52.166;5.004;2023-03-20T05:14:42;101918.19;;;9.60;65.41
71384;BME280;67558;52.166;5.004;2023-03-20T05:17:07;101914.03;;;9.64;65.45
71384;BME280;67558;52.166;5.004;2023-03-20T05:19:32;101923.66;;;9.65;65.35
71384;BME280;67558;52.166;5.004;2023-03-20T05:21:58;101921.47;;;9.62;65.59
71384;BME280;67558;52.166;5.004;2023-03-20T05:24:23;101909.38;;;9.59;65.62
71384;BME280;67558;52.166;5.004;2023-03-20T05:26:49;101908.31;;;9.60;65.61
71384;BME280;67558;52.166;5.004;2023-03-20T05:29:15;101915.63;;;9.65;65.42
71384;BME280;67558;52.166;5.004;2023-03-20T05:31:40;101922.25;;;9.62;65.60
71384;BME280;67558;52.166;5.004;2023-03-20T05:34:05;101916.34;;;9.60;65.59
71384;BME280;67558;52.166;5.004;2023-03-20T05:36:31;101921.31;;;9.57;65.70
71384;BME280;67558;52.166;5.004;2023-03-20T05:38:56;101921.09;;;9.58;65.59
71384;BME280;67558;52.166;5.004;2023-03-20T05:41:22;101922.38;;;9.56;65.82
71384;BME280;67558;52.166;5.004;2023-03-20T05:43:47;101940.16;;;9.62;65.69
71384;BME280;67558;52.166;5.004;2023-03-20T05:46:13;101938.50;;;9.61;65.63
71384;BME280;67558;52.166;5.004;2023-03-20T05:48:38;101934.66;;;9.57;65.78
71384;BME280;67558;52.166;5.004;2023-03-20T05:51:04;101934.66;;;9.57;65.68
71384;BME280;67558;52.166;5.004;2023-03-20T05:53:30;101938.50;;;9.61;65.74
71384;BME280;67558;52.166;5.004;2023-03-20T05:55:55;101935.41;;;9.64;65.86
71384;BME280;67558;52.166;5.004;2023-03-20T05:58:21;101925.50;;;9.53;66.00
71384;BME280;67558;52.166;5.004;2023-03-20T06:00:46;101930.97;;;9.58;66.11
71384;BME280;67558;52.166;5.004;2023-03-20T06:03:12;101935.25;;;9.59;66.00
71384;BME280;67558;52.166;5.004;2023-03-20T06:05:37;101934.44;;;9.58;66.07
71384;BME280;67558;52.166;5.004;2023-03-20T06:08:03;101937.13;;;9.58;66.07
71384;BME280;67558;52.166;5.004;2023-03-20T06:10:28;101942.25;;;9.60;66.00
71384;BME280;67558;52.166;5.004;2023-03-20T06:12:55;101937.47;;;9.62;66.05
71384;BME280;67558;52.166;5.004;2023-03-20T06:15:21;101943.41;;;9.64;66.08
71384;BME280;67558;52.166;5.004;2023-03-20T06:17:47;101945.25;;;9.63;65.88
71384;BME280;67558;52.166;5.004;2023-03-20T06:20:12;101942.25;;;9.60;66.13
71384;BME280;67558;52.166;5.004;2023-03-20T06:22:38;101948.63;;;9.59;66.09
71384;BME280;67558;52.166;5.004;2023-03-20T06:25:04;101947.91;;;9.63;66.10
71384;BME280;67558;52.166;5.004;2023-03-20T06:27:30;101950.25;;;9.60;66.12
71384;BME280;67558;52.166;5.004;2023-03-20T06:29:56;101945.34;;;9.57;65.88
71384;BME280;67558;52.166;5.004;2023-03-20T06:32:21;101952.13;;;9.59;66.08
71384;BME280;67558;52.166;5.004;2023-03-20T06:34:47;101947.69;;;9.65;66.04
71384;BME280;67558;52.166;5.004;2023-03-20T06:37:12;101956.06;;;9.69;66.09
71384;BME280;67558;52.166;5.004;2023-03-20T06:39:38;101954.69;;;9.66;66.15
71384;BME280;67558;52.166;5.004;2023-03-20T06:42:03;101952.44;;;9.63;66.22
71384;BME280;67558;52.166;5.004;2023-03-20T06:44:28;101953.84;;;9.66;66.18
71384;BME280;67558;52.166;5.004;2023-03-20T06:46:54;101957.56;;;9.64;66.08
71384;BME280;67558;52.166;5.004;2023-03-20T06:49:20;101958.97;;;9.67;66.11
71384;BME280;67558;52.166;5.004;2023-03-20T06:51:45;101956.50;;;9.66;66.28
71384;BME280;67558;52.166;5.004;2023-03-20T06:54:12;101961.63;;;9.67;66.12
71384;BME280;67558;52.166;5.004;2023-03-20T06:56:37;101960.03;;;9.66;66.05
71384;BME280;67558;52.166;5.004;2023-03-20T06:59:02;101960.59;;;9.68;66.03
71384;BME280;67558;52.166;5.004;2023-03-20T07:01:28;101959.56;;;9.69;66.15
71384;BME280;67558;52.166;5.004;2023-03-20T07:03:53;101967.56;;;9.69;66.16
71384;BME280;67558;52.166;5.004;2023-03-20T07:06:19;101967.78;;;9.68;66.13
71384;BME280;67558;52.166;5.004;2023-03-20T07:08:44;101968.25;;;9.64;66.19
71384;BME280;67558;52.166;5.004;2023-03-20T07:11:10;101968.84;;;9.67;66.24
71384;BME280;67558;52.166;5.004;2023-03-20T07:13:35;101966.16;;;9.67;66.07
71384;BME280;67558;52.166;5.004;2023-03-20T07:16:03;101966.16;;;9.67;66.19
71384;BME280;67558;52.166;5.004;2023-03-20T07:18:28;101976.16;;;9.71;66.10
71384;BME280;67558;52.166;5.004;2023-03-20T07:20:58;101962.00;;;9.71;66.10
71384;BME280;67558;52.166;5.004;2023-03-20T07:23:25;101965.94;;;9.80;66.05
71384;BME280;67558;52.166;5.004;2023-03-20T07:25:51;101961.88;;;9.77;66.00
71384;BME280;67558;52.166;5.004;2023-03-20T07:28:16;101967.22;;;9.77;66.06
71384;BME280;67558;52.166;5.004;2023-03-20T07:30:42;101970.25;;;9.81;66.09
71384;BME280;67558;52.166;5.004;2023-03-20T07:33:07;101971.97;;;9.87;65.99
71384;BME280;67558;52.166;5.004;2023-03-20T07:35:33;101958.75;;;9.80;65.87
71384;BME280;67558;52.166;5.004;2023-03-20T07:37:58;101971.19;;;9.87;66.03
71384;BME280;67558;52.166;5.004;2023-03-20T07:40:24;101965.38;;;9.90;65.87
71384;BME280;67558;52.166;5.004;2023-03-20T07:42:50;101967.00;;;9.91;65.72
71384;BME280;67558;52.166;5.004;2023-03-20T07:45:16;101962.00;;;9.94;65.67
71384;BME280;67558;52.166;5.004;2023-03-20T07:47:43;101965.84;;;9.98;65.74
71384;BME280;67558;52.166;5.004;2023-03-20T07:50:09;101975.63;;;10.04;65.59
71384;BME280;67558;52.166;5.004;2023-03-20T07:52:34;101966.44;;;10.00;65.47
71384;BME280;67558;52.166;5.004;2023-03-20T07:55:00;101982.47;;;10.12;65.40
71384;BME280;67558;52.166;5.004;2023-03-20T07:57:25;101977.22;;;10.17;65.63
71384;BME280;67558;52.166;5.004;2023-03-20T07:59:50;101975.94;;;10.20;65.28
71384;BME280;67558;52.166;5.004;2023-03-20T08:02:16;101976.84;;;10.25;65.40
71384;BME280;67558;52.166;5.004;2023-03-20T08:04:43;101976.41;;;10.29;65.15
71384;BME280;67558;52.166;5.004;2023-03-20T08:07:08;101977.13;;;10.36;65.03
71384;BME280;67558;52.166;5.004;2023-03-20T08:09:34;101973.50;;;10.42;64.84
71384;BME280;67558;52.166;5.004;2023-03-20T08:11:59;101974.31;;;10.42;64.82
71384;BME280;67558;52.166;5.004;2023-03-20T08:14:25;101972.69;;;10.41;64.49
71384;BME280;67558;52.166;5.004;2023-03-20T08:16:50;101976.97;;;10.42;64.62
71384;BME280;67558;52.166;5.004;2023-03-20T08:19:16;101978.38;;;10.45;64.66
71384;BME280;67558;52.166;5.004;2023-03-20T08:21:41;101980.59;;;10.48;64.87
71384;BME280;67558;52.166;5.004;2023-03-20T08:24:07;101977.91;;;10.48;64.56
71384;BME280;67558;52.166;5.004;2023-03-20T08:26:32;101977.44;;;10.51;64.30
71384;BME280;67558;52.166;5.004;2023-03-20T08:28:58;101981.75;;;10.52;64.72
71384;BME280;67558;52.166;5.004;2023-03-20T08:31:23;101978.59;;;10.55;64.73
71384;BME280;67558;52.166;5.004;2023-03-20T08:33:50;101987.78;;;10.59;65.01
71384;BME280;67558;52.166;5.004;2023-03-20T08:36:18;101983.81;;;10.62;65.10
71384;BME280;67558;52.166;5.004;2023-03-20T08:38:45;101976.03;;;10.60;65.03
71384;BME280;67558;52.166;5.004;2023-03-20T08:41:11;101985.53;;;10.68;65.28
71384;BME280;67558;52.166;5.004;2023-03-20T08:43:37;101985.31;;;10.70;65.27
71384;BME280;67558;52.166;5.004;2023-03-20T08:46:04;101982.16;;;10.73;65.56
71384;BME280;67558;52.166;5.004;2023-03-20T08:48:29;101982.16;;;10.73;65.46
71384;BME280;67558;52.166;5.004;2023-03-20T08:50:55;101988.06;;;10.75;65.63
71384;BME280;67558;52.166;5.004;2023-03-20T08:53:20;101987.03;;;10.76;65.95
71384;BME280;67558;52.166;5.004;2023-03-20T08:55:50;101977.38;;;10.75;65.92
71384;BME280;67558;52.166;5.004;2023-03-20T08:58:17;101974.25;;;10.78;65.89
71384;BME280;67558;52.166;5.004;2023-03-20T09:00:43;101983.16;;;10.83;66.17
71384;BME280;67558;52.166;5.004;2023-03-20T09:03:13;101981.56;;;10.82;66.25
71384;BME280;67558;52.166;5.004;2023-03-20T09:05:43;101977.56;;;10.85;66.16
71384;BME280;67558;52.166;5.004;2023-03-20T09:08:09;101980.25;;;10.85;66.35
71384;BME280;67558;52.166;5.004;2023-03-20T09:10:35;101986.19;;;10.87;66.40
71384;BME280;67558;52.166;5.004;2023-03-20T09:13:01;101986.09;;;10.82;66.20
71384;BME280;67558;52.166;5.004;2023-03-20T09:15:27;101985.69;;;10.90;66.63
71384;BME280;67558;52.166;5.004;2023-03-20T09:17:53;101983.13;;;10.95;66.55
71384;BME280;67558;52.166;5.004;2023-03-20T09:20:18;101988.22;;;10.97;66.79
71384;BME280;67558;52.166;5.004;2023-03-20T09:22:44;101979.00;;;11.04;66.77
71384;BME280;67558;52.166;5.004;2023-03-20T09:25:10;101973.16;;;11.07;67.08
71384;BME280;67558;52.166;5.004;2023-03-20T09:27:37;101974.88;;;11.14;66.82
71384;BME280;67558;52.166;5.004;2023-03-20T09:30:04;101971.03;;;11.21;66.86
71384;BME280;67558;52.166;5.004;2023-03-20T09:32:30;101970.94;;;11.33;66.60
71384;BME280;67558;52.166;5.004;2023-03-20T09:34:56;101970.72;;;11.35;66.60
71384;BME280;67558;52.166;5.004;2023-03-20T09:37:22;101968.25;;;11.33;66.82
71384;BME280;67558;52.166;5.004;2023-03-20T09:39:47;101965.34;;;11.35;66.83
71384;BME280;67558;52.166;5.004;2023-03-20T09:42:34;101973.00;;;11.43;66.60
71384;BME280;67558;52.166;5.004;2023-03-20T09:48:51;101963.84;;;11.56;66.85
71384;BME280;67558;52.166;5.004;2023-03-20T09:51:02;101964.00;;;11.66;66.54
71384;BME280;67558;52.166;5.004;2023-03-20T09:53:37;101969.59;;;11.81;66.53
71384;BME280;67558;52.166;5.004;2023-03-20T09:56:04;101967.66;;;11.94;66.40
71384;BME280;67558;52.166;5.004;2023-03-20T09:58:36;101963.91;;;11.95;66.18
71384;BME280;67558;52.166;5.004;2023-03-20T10:01:04;101965.22;;;11.92;65.81
71384;BME280;67558;52.166;5.004;2023-03-20T10:03:47;101966.59;;;11.95;65.62
71384;BME280;67558;52.166;5.004;2023-03-20T10:06:15;101978.47;;;11.99;65.82
71384;BME280;67558;52.166;5.004;2023-03-20T10:08:43;101973.91;;;11.99;66.00
71384;BME280;67558;52.166;5.004;2023-03-20T10:11:23;101964.56;;;12.02;65.61
71384;BME280;67558;52.166;5.004;2023-03-20T10:23:15;101966.81;;;12.10;65.49
71384;BME280;67558;52.166;5.004;2023-03-20T10:27:46;101925.72;;;11.87;65.28
71384;BME280;67558;52.166;5.004;2023-03-20T10:41:32;101952.22;;;12.01;65.18
71384;BME280;67558;52.166;5.004;2023-03-20T10:43:59;101958.72;;;12.05;65.46
71384;BME280;67558;52.166;5.004;2023-03-20T10:46:28;101958.06;;;11.98;65.68
71384;BME280;67558;52.166;5.004;2023-03-20T10:54:11;101956.13;;;11.93;65.23
71384;BME280;67558;52.166;5.004;2023-03-20T10:56:43;101937.50;;;11.86;65.64
71384;BME280;67558;52.166;5.004;2023-03-20T10:59:35;101941.72;;;11.82;66.07
71384;BME280;67558;52.166;5.004;2023-03-20T11:02:11;101948.81;;;11.88;66.09
71384;BME280;67558;52.166;5.004;2023-03-20T11:04:37;101952.44;;;11.99;65.98
71384;BME280;67558;52.166;5.004;2023-03-20T11:07:31;101942.72;;;11.93;65.40
71384;BME280;67558;52.166;5.004;2023-03-20T11:12:31;101936.13;;;12.01;65.67
71384;BME280;67558;52.166;5.004;2023-03-20T11:14:59;101928.66;;;12.03;65.56
71384;BME280;67558;52.166;5.004;2023-03-20T11:17:29;101929.78;;;12.07;65.72
71384;BME280;67558;52.166;5.004;2023-03-20T11:20:02;101921.97;;;12.05;65.97
71384;BME280;67558;52.166;5.004;2023-03-20T11:22:28;101926.09;;;12.13;66.00
71384;BME280;67558;52.166;5.004;2023-03-20T11:24:56;101920.03;;;12.23;66.04
71384;BME280;67558;52.166;5.004;2023-03-20T11:27:32;101915.81;;;12.27;65.81
71384;BME280;67558;52.166;5.004;2023-03-20T11:30:04;101921.22;;;12.32;65.98
71384;BME280;67558;52.166;5.004;2023-03-20T11:32:38;101902.19;;;12.34;65.78
71384;BME280;67558;52.166;5.004;2023-03-20T11:37:35;101899.34;;;12.40;65.70
71384;BME280;67558;52.166;5.004;2023-03-20T11:40:20;101909.81;;;12.42;65.53
71384;BME280;67558;52.166;5.004;2023-03-20T11:42:55;101895.78;;;12.35;65.73
71384;BME280;67558;52.166;5.004;2023-03-20T11:45:21;101906.81;;;12.38;65.47
71384;BME280;67558;52.166;5.004;2023-03-20T11:47:50;101910.31;;;12.39;65.58
71384;BME280;67558;52.166;5.004;2023-03-20T11:50:32;101903.56;;;12.36;65.69
71384;BME280;67558;52.166;5.004;2023-03-20T11:53:00;101909.50;;;12.38;65.54
71384;BME280;67558;52.166;5.004;2023-03-20T11:55:33;101916.19;;;12.36;65.79
71384;BME280;67558;52.166;5.004;2023-03-20T11:58:02;101914.81;;;12.33;65.84
71384;BME280;67558;52.166;5.004;2023-03-20T12:00:36;101906.69;;;12.28;66.13
71384;BME280;67558;52.166;5.004;2023-03-20T12:03:02;101905.88;;;12.27;66.00
71384;BME280;67558;52.166;5.004;2023-03-20T12:05:35;101912.31;;;12.26;66.20
71384;BME280;67558;52.166;5.004;2023-03-20T12:08:14;101908.44;;;12.17;66.50
71384;BME280;67558;52.166;5.004;2023-03-20T12:10:43;101900.34;;;12.12;66.67
71384;BME280;67558;52.166;5.004;2023-03-20T12:13:32;101901.69;;;12.15;66.69
71384;BME280;67558;52.166;5.004;2023-03-20T12:16:25;101913.97;;;12.11;67.53
71384;BME280;67558;52.166;5.004;2023-03-20T12:19:05;101909.44;;;12.11;66.66
71384;BME280;67558;52.166;5.004;2023-03-20T12:21:45;101911.56;;;12.09;66.94
71384;BME280;67558;52.166;5.004;2023-03-20T12:24:16;101906.44;;;12.07;67.25
71384;BME280;67558;52.166;5.004;2023-03-20T12:27:00;101902.41;;;12.05;66.96
71384;BME280;67558;52.166;5.004;2023-03-20T12:29:42;101906.53;;;11.96;68.11
71384;BME280;67558;52.166;5.004;2023-03-20T12:32:14;101901.75;;;11.98;68.42
71384;BME280;67558;52.166;5.004;2023-03-20T12:37:49;101869.28;;;11.77;67.64
71384;BME280;67558;52.166;5.004;2023-03-20T12:40:16;101895.66;;;12.02;67.80
71384;BME280;67558;52.166;5.004;2023-03-20T12:43:02;101894.03;;;12.01;67.57
71384;BME280;67558;52.166;5.004;2023-03-20T12:45:45;101879.25;;;11.99;67.67
71384;BME280;67558;52.166;5.004;2023-03-20T13:01:20;101865.69;;;11.88;68.62
71384;BME280;67558;52.166;5.004;2023-03-20T13:04:03;101875.63;;;11.88;68.95
71384;BME280;67558;52.166;5.004;2023-03-20T13:06:54;101871.63;;;11.91;68.81
71384;BME280;67558;52.166;5.004;2023-03-20T13:20:30;101860.53;;;11.87;68.78
71384;BME280;67558;52.166;5.004;2023-03-20T13:23:12;101857.66;;;11.88;69.06
71384;BME280;67558;52.166;5.004;2023-03-20T13:25:51;101847.41;;;11.85;69.01
71384;BME280;67558;52.166;5.004;2023-03-20T13:28:40;101852.69;;;11.80;69.31
71384;BME280;67558;52.166;5.004;2023-03-20T13:39:09;101852.47;;;11.65;69.77
71384;BME280;67558;52.166;5.004;2023-03-20T13:41:37;101851.91;;;11.63;69.76
71384;BME280;67558;52.166;5.004;2023-03-20T13:44:04;101843.88;;;11.63;69.88
71384;BME280;67558;52.166;5.004;2023-03-20T13:46:40;101839.03;;;11.60;70.22
71384;BME280;67558;52.166;5.004;2023-03-20T13:57:34;101842.56;;;11.65;70.14
71384;BME280;67558;52.166;5.004;2023-03-20T14:00:10;101837.19;;;11.65;70.30
71384;BME280;67558;52.166;5.004;2023-03-20T14:05:35;101838.59;;;11.68;70.41
71384;BME280;67558;52.166;5.004;2023-03-20T14:13:35;101834.28;;;11.67;70.11
71384;BME280;67558;52.166;5.004;2023-03-20T14:16:07;101840.44;;;11.67;70.44
71384;BME280;67558;52.166;5.004;2023-03-20T14:18:34;101839.88;;;11.65;70.40
71384;BME280;67558;52.166;5.004;2023-03-20T14:21:03;101842.56;;;11.65;70.24
71384;BME280;67558;52.166;5.004;2023-03-20T14:23:36;101835.84;;;11.63;70.70
71384;BME280;67558;52.166;5.004;2023-03-20T14:26:08;101839.81;;;11.60;70.79
71384;BME280;67558;52.166;5.004;2023-03-20T14:28:51;101814.69;;;11.44;71.09
71384;BME280;67558;52.166;5.004;2023-03-20T14:31:33;101832.75;;;11.54;70.91
71384;BME280;67558;52.166;5.004;2023-03-20T14:37:00;101827.97;;;11.56;71.10
71384;BME280;67558;52.166;5.004;2023-03-20T14:50:02;101830.00;;;11.66;71.14
71384;BME280;67558;52.166;5.004;2023-03-20T14:52:49;101821.13;;;11.65;71.64
71384;BME280;67558;52.166;5.004;2023-03-20T14:57:46;101834.28;;;11.67;71.21
71384;BME280;67558;52.166;5.004;2023-03-20T15:00:19;101826.00;;;11.68;71.43
71384;BME280;67558;52.166;5.004;2023-03-20T15:02:50;101805.06;;;11.48;71.52
71384;BME280;67558;52.166;5.004;2023-03-20T15:05:24;101823.50;;;11.62;71.87
71384;BME280;67558;52.166;5.004;2023-03-20T15:07:51;101821.56;;;11.57;71.96
71384;BME280;67558;52.166;5.004;2023-03-20T15:10:16;101812.22;;;11.60;71.71
71384;BME280;67558;52.166;5.004;2023-03-20T15:12:42;101805.72;;;11.56;71.82
71384;BME280;67558;52.166;5.004;2023-03-20T15:15:26;101810.59;;;11.59;72.33
71384;BME280;67558;52.166;5.004;2023-03-20T15:17:52;101810.91;;;11.62;71.73
71384;BME280;67558;52.166;5.004;2023-03-20T15:20:26;101800.94;;;11.58;71.79
71384;BME280;67558;52.166;5.004;2023-03-20T15:23:00;101801.50;;;11.60;72.61